Time;durP1;ratioP1;P1;durP2;ratioP2;P2;SDS_P1;SDS_P2;PMS_P1;PMS_P2;Temp;Humidity;BMP_temperature;BMP_pressure;BME280_temperature;BME280_humidity;BME280_pressure;Samples;Min_cycle;Max_cycle;Signal;HPM_P1;HPM_P2
2024/03/17 00:00:18;;;;;;;11.60;6.25;;;;;;;;;;4964550;28;25133;-73
2024/03/17 00:02:44;;;;;;;11.88;6.00;;;;;;;;;;4965398;28;25124;-72
2024/03/17 00:05:10;;;;;;;12.80;7.40;;;;;;;;;;4966500;28;25076;-73
2024/03/17 00:07:37;;;;;;;22.77;7.88;;;;;;;;;;4964581;28;25076;-72
2024/03/17 00:10:04;;;;;;;13.68;7.95;;;;;;;;;;4961605;28;25059;-73
2024/03/17 00:12:29;;;;;;;15.65;7.72;;;;;;;;;;4968501;28;25189;-73
2024/03/17 00:14:55;;;;;;;15.43;8.25;;;;;;;;;;4965990;28;25103;-72
2024/03/17 00:17:22;;;;;;;16.70;8.00;;;;;;;;;;4965876;28;25443;-74
2024/03/17 00:19:49;;;;;;;12.52;7.03;;;;;;;;;;4970041;28;25079;-74
2024/03/17 00:22:15;;;;;;;11.25;7.40;;;;;;;;;;4968559;28;25154;-73
2024/03/17 00:24:41;;;;;;;10.88;6.88;;;;;;;;;;4964363;28;25095;-74
2024/03/17 00:27:07;;;;;;;15.30;7.47;;;;;;;;;;4958372;28;25060;-72
2024/03/17 00:29:33;;;;;;;16.30;8.10;;;;;;;;;;4967621;28;25158;-73
2024/03/17 00:31:59;;;;;;;14.45;6.85;;;;;;;;;;4968195;28;25159;-73
2024/03/17 00:34:25;;;;;;;14.55;7.35;;;;;;;;;;4965498;28;25071;-72
2024/03/17 00:36:51;;;;;;;12.25;7.03;;;;;;;;;;4967866;28;25055;-73
2024/03/17 00:39:17;;;;;;;14.30;7.05;;;;;;;;;;4973663;28;25119;-72
2024/03/17 00:41:46;;;;;;;14.57;7.18;;;;;;;;;;4973247;28;25083;-73
2024/03/17 00:44:12;;;;;;;9.90;6.95;;;;;;;;;;4964952;28;25087;-73
2024/03/17 00:46:39;;;;;;;12.35;6.32;;;;;;;;;;4969736;28;25106;-75
2024/03/17 00:49:05;;;;;;;10.80;7.78;;;;;;;;;;4978767;28;25145;-73
2024/03/17 00:51:31;;;;;;;14.18;7.03;;;;;;;;;;4962155;28;25134;-75
2024/03/17 00:53:58;;;;;;;12.55;6.55;;;;;;;;;;4962656;28;25074;-72
2024/03/17 00:56:24;;;;;;;12.00;6.97;;;;;;;;;;4969300;28;25053;-74
2024/03/17 00:58:51;;;;;;;10.93;7.15;;;;;;;;;;4972812;28;25154;-74
2024/03/17 01:01:19;;;;;;;14.13;7.10;;;;;;;;;;4966460;28;25080;-74
2024/03/17 01:03:45;;;;;;;14.50;8.25;;;;;;;;;;4960767;28;25062;-73
2024/03/17 01:06:11;;;;;;;15.60;7.80;;;;;;;;;;4962249;28;25059;-73
2024/03/17 01:08:37;;;;;;;11.55;7.63;;;;;;;;;;4968373;28;25065;-73
2024/03/17 01:11:03;;;;;;;13.73;7.70;;;;;;;;;;4964315;28;25171;-73
2024/03/17 01:13:30;;;;;;;14.55;7.95;;;;;;;;;;4959837;28;25091;-73
2024/03/17 01:15:56;;;;;;;11.77;7.30;;;;;;;;;;4962039;28;25059;-73
2024/03/17 01:18:22;;;;;;;13.35;6.63;;;;;;;;;;4961988;28;25058;-73
2024/03/17 01:20:48;;;;;;;18.60;7.57;;;;;;;;;;4972631;28;25047;-73
2024/03/17 01:23:14;;;;;;;10.38;7.28;;;;;;;;;;4963741;28;25132;-73
2024/03/17 01:25:40;;;;;;;10.50;7.38;;;;;;;;;;4974528;28;25049;-74
2024/03/17 01:28:06;;;;;;;12.13;7.07;;;;;;;;;;4965069;28;25075;-73
2024/03/17 01:30:34;;;;;;;14.18;7.80;;;;;;;;;;4967802;28;25072;-76
2024/03/17 01:33:00;;;;;;;14.85;7.63;;;;;;;;;;4970765;28;25168;-73
2024/03/17 01:35:26;;;;;;;15.20;7.93;;;;;;;;;;4962275;28;25064;-72
2024/03/17 01:37:52;;;;;;;11.40;7.57;;;;;;;;;;4965660;28;25065;-73
2024/03/17 01:40:18;;;;;;;16.02;8.32;;;;;;;;;;4960849;28;25132;-74
2024/03/17 01:42:44;;;;;;;14.38;8.45;;;;;;;;;;4971551;28;25071;-72
2024/03/17 01:45:24;;;;;;;13.00;8.65;;;;;;;;;;4966489;28;25122;-73
2024/03/17 01:47:50;;;;;;;11.63;8.10;;;;;;;;;;4956293;28;25100;-74
2024/03/17 01:50:18;;;;;;;10.85;9.18;;;;;;;;;;4963737;28;25072;-73
2024/03/17 01:52:46;;;;;;;16.70;11.20;;;;;;;;;;4961596;28;25046;-72
2024/03/17 01:55:12;;;;;;;17.55;10.23;;;;;;;;;;4963192;28;25065;-74
2024/03/17 01:57:38;;;;;;;16.25;9.27;;;;;;;;;;4960267;28;25045;-74
2024/03/17 02:00:08;;;;;;;13.32;8.85;;;;;;;;;;4963002;28;25067;-74
2024/03/17 02:02:34;;;;;;;13.68;8.63;;;;;;;;;;4969873;28;25159;-75
2024/03/17 02:05:00;;;;;;;11.68;8.30;;;;;;;;;;4967394;28;25080;-74
2024/03/17 02:07:26;;;;;;;11.85;8.35;;;;;;;;;;4965382;28;25055;-74
2024/03/17 02:09:52;;;;;;;12.68;8.48;;;;;;;;;;4964395;28;25063;-74
2024/03/17 02:12:18;;;;;;;17.00;8.75;;;;;;;;;;4970267;28;25064;-74
2024/03/17 02:14:43;;;;;;;15.40;8.43;;;;;;;;;;4964714;28;25070;-73
2024/03/17 02:17:09;;;;;;;13.63;8.13;;;;;;;;;;4975023;28;25150;-76
2024/03/17 02:19:35;;;;;;;9.80;7.45;;;;;;;;;;4962612;28;25081;-73
2024/03/17 02:22:01;;;;;;;17.02;7.95;;;;;;;;;;4967526;28;25055;-74
2024/03/17 02:24:27;;;;;;;12.68;8.10;;;;;;;;;;4969503;28;25078;-73
2024/03/17 02:26:53;;;;;;;10.25;8.20;;;;;;;;;;4966753;28;25077;-74
2024/03/17 02:29:19;;;;;;;13.63;8.73;;;;;;;;;;4968218;28;25073;-75
2024/03/17 02:31:46;;;;;;;15.05;8.52;;;;;;;;;;4966372;28;25073;-73
2024/03/17 02:34:12;;;;;;;14.50;8.48;;;;;;;;;;4959871;28;25068;-72
2024/03/17 02:36:38;;;;;;;17.67;8.75;;;;;;;;;;4966046;28;25086;-73
2024/03/17 02:41:49;;;;;;;12.93;9.32;;;;;;;;;;4980028;28;25085;-74
2024/03/17 02:44:15;;;;;;;18.17;8.43;;;;;;;;;;4981653;28;25094;-73
2024/03/17 02:46:41;;;;;;;12.32;8.05;;;;;;;;;;4983660;28;25065;-73
2024/03/17 02:49:08;;;;;;;14.73;8.70;;;;;;;;;;4976878;28;25055;-76
2024/03/17 02:51:34;;;;;;;10.85;8.55;;;;;;;;;;4977938;28;25068;-75
2024/03/17 02:54:01;;;;;;;14.25;8.35;;;;;;;;;;4975623;28;25074;-77
2024/03/17 02:56:27;;;;;;;13.48;8.57;;;;;;;;;;4976370;28;25068;-73
2024/03/17 02:58:54;;;;;;;12.80;8.07;;;;;;;;;;4970604;28;25095;-73
2024/03/17 03:01:20;;;;;;;13.02;8.45;;;;;;;;;;4963779;28;25120;-74
2024/03/17 03:03:46;;;;;;;11.27;7.90;;;;;;;;;;4960963;28;25078;-73
2024/03/17 03:06:13;;;;;;;16.05;9.25;;;;;;;;;;4967358;28;25063;-76
2024/03/17 03:08:40;;;;;;;12.60;8.10;;;;;;;;;;4966463;28;25050;-77
2024/03/17 03:11:07;;;;;;;11.18;8.27;;;;;;;;;;4968757;28;25079;-72
2024/03/17 03:13:33;;;;;;;10.23;8.00;;;;;;;;;;4967414;28;25061;-74
2024/03/17 03:15:59;;;;;;;14.05;8.60;;;;;;;;;;4964076;28;25074;-73
2024/03/17 03:18:25;;;;;;;11.45;8.40;;;;;;;;;;4968268;28;25132;-73
2024/03/17 03:20:52;;;;;;;15.05;9.45;;;;;;;;;;4969546;28;25064;-75
2024/03/17 03:23:19;;;;;;;15.90;9.82;;;;;;;;;;4979153;28;25117;-73
2024/03/17 03:25:46;;;;;;;14.85;10.27;;;;;;;;;;4967016;28;25069;-73
2024/03/17 03:28:12;;;;;;;21.48;10.27;;;;;;;;;;4964901;28;25132;-71
2024/03/17 03:30:38;;;;;;;16.48;9.75;;;;;;;;;;4958340;28;25142;-74
2024/03/17 03:33:05;;;;;;;14.75;9.75;;;;;;;;;;4960218;28;25051;-73
2024/03/17 03:35:31;;;;;;;18.52;9.82;;;;;;;;;;4970434;28;25048;-74
2024/03/17 03:37:57;;;;;;;14.57;9.95;;;;;;;;;;4965361;28;25099;-73
2024/03/17 03:40:24;;;;;;;12.90;8.95;;;;;;;;;;4961591;28;25154;-74
2024/03/17 03:42:50;;;;;;;15.63;8.60;;;;;;;;;;4962454;28;25090;-73
2024/03/17 03:45:16;;;;;;;16.58;9.15;;;;;;;;;;4961171;28;25106;-75
2024/03/17 03:47:43;;;;;;;10.70;8.00;;;;;;;;;;4965834;28;25064;-75
2024/03/17 03:50:09;;;;;;;14.82;8.52;;;;;;;;;;4968446;28;25085;-74
2024/03/17 03:52:36;;;;;;;10.52;8.45;;;;;;;;;;4955339;28;25123;-73
2024/03/17 03:55:04;;;;;;;9.63;7.85;;;;;;;;;;4959243;28;25077;-75
2024/03/17 03:57:29;;;;;;;13.60;8.02;;;;;;;;;;4961851;28;25117;-73
2024/03/17 03:59:56;;;;;;;12.15;8.68;;;;;;;;;;4969611;28;25090;-73
2024/03/17 04:02:22;;;;;;;11.70;8.88;;;;;;;;;;4965767;28;25065;-73
2024/03/17 04:04:48;;;;;;;15.82;10.05;;;;;;;;;;4964445;28;25062;-73
2024/03/17 04:07:14;;;;;;;15.35;10.52;;;;;;;;;;4956645;28;25073;-73
2024/03/17 04:09:40;;;;;;;13.80;10.40;;;;;;;;;;4964423;28;25051;-72
2024/03/17 04:12:06;;;;;;;13.27;10.13;;;;;;;;;;4961180;28;25074;-73
2024/03/17 04:14:32;;;;;;;15.57;10.93;;;;;;;;;;4961599;28;25062;-73
2024/03/17 04:16:58;;;;;;;20.02;11.48;;;;;;;;;;4957259;28;25074;-74
2024/03/17 04:19:25;;;;;;;14.30;11.27;;;;;;;;;;4959631;28;25049;-72
2024/03/17 04:21:51;;;;;;;16.52;10.98;;;;;;;;;;4964867;28;25071;-73
2024/03/17 04:24:18;;;;;;;18.00;11.10;;;;;;;;;;4969440;28;25069;-72
2024/03/17 04:26:44;;;;;;;15.55;10.80;;;;;;;;;;4969142;28;25066;-74
2024/03/17 04:29:10;;;;;;;15.25;10.90;;;;;;;;;;4978455;28;25068;-73
2024/03/17 04:31:36;;;;;;;17.42;10.65;;;;;;;;;;4965448;28;25080;-72
2024/03/17 04:34:02;;;;;;;13.65;10.98;;;;;;;;;;4966282;28;25066;-73
2024/03/17 04:36:28;;;;;;;15.15;10.77;;;;;;;;;;4966440;28;25043;-73
2024/03/17 04:38:54;;;;;;;14.45;10.35;;;;;;;;;;4969165;28;25063;-73
2024/03/17 04:41:20;;;;;;;14.52;10.73;;;;;;;;;;4967093;28;25075;-74
2024/03/17 04:43:46;;;;;;;13.18;9.35;;;;;;;;;;4968637;28;25069;-74
2024/03/17 04:46:13;;;;;;;13.95;10.45;;;;;;;;;;4966421;28;25133;-74
2024/03/17 04:48:39;;;;;;;15.40;10.38;;;;;;;;;;4963819;28;25059;-75
2024/03/17 04:51:05;;;;;;;18.13;11.05;;;;;;;;;;4972145;28;25056;-75
2024/03/17 04:53:32;;;;;;;17.58;10.07;;;;;;;;;;4960245;28;25073;-74
2024/03/17 04:55:59;;;;;;;21.98;12.57;;;;;;;;;;4973685;28;25074;-74
2024/03/17 04:58:25;;;;;;;17.73;10.73;;;;;;;;;;4962325;28;25107;-73
2024/03/17 05:00:51;;;;;;;13.13;9.82;;;;;;;;;;4966395;28;25097;-74
2024/03/17 05:03:17;;;;;;;11.73;10.23;;;;;;;;;;4961864;28;25080;-74
2024/03/17 05:05:43;;;;;;;13.48;9.73;;;;;;;;;;4971320;28;25114;-74
2024/03/17 05:08:09;;;;;;;15.05;10.40;;;;;;;;;;4966362;28;25108;-75
2024/03/17 05:10:35;;;;;;;14.02;10.13;;;;;;;;;;4966974;28;25133;-74
2024/03/17 05:13:01;;;;;;;17.13;10.75;;;;;;;;;;4962670;28;25075;-73
2024/03/17 05:15:28;;;;;;;13.50;10.13;;;;;;;;;;4961825;28;25151;-74
2024/03/17 05:17:54;;;;;;;16.40;11.30;;;;;;;;;;4968310;28;25062;-75
2024/03/17 05:20:21;;;;;;;13.70;10.60;;;;;;;;;;4983129;28;25080;-77
2024/03/17 05:22:48;;;;;;;17.50;10.52;;;;;;;;;;4970960;28;25075;-74
2024/03/17 05:25:14;;;;;;;13.70;10.43;;;;;;;;;;4970050;28;25145;-77
2024/03/17 05:27:40;;;;;;;14.05;10.32;;;;;;;;;;4962946;28;25141;-74
2024/03/17 05:30:08;;;;;;;14.50;11.27;;;;;;;;;;4972752;28;25071;-74
2024/03/17 05:32:34;;;;;;;13.85;10.30;;;;;;;;;;4967818;28;25056;-75
2024/03/17 05:35:01;;;;;;;14.23;9.43;;;;;;;;;;4969357;28;25062;-75
2024/03/17 05:37:27;;;;;;;15.52;10.13;;;;;;;;;;4966975;28;25103;-75
2024/03/17 05:39:54;;;;;;;14.23;10.73;;;;;;;;;;4970277;28;25096;-75
2024/03/17 05:42:20;;;;;;;14.38;10.65;;;;;;;;;;4967535;28;25119;-75
2024/03/17 05:44:49;;;;;;;13.27;9.98;;;;;;;;;;4966420;28;25091;-74
2024/03/17 05:47:17;;;;;;;14.48;10.70;;;;;;;;;;4969396;28;25118;-74
2024/03/17 05:49:43;;;;;;;16.13;10.32;;;;;;;;;;4971977;28;25067;-74
2024/03/17 05:52:09;;;;;;;16.02;10.18;;;;;;;;;;4969736;28;25062;-76
2024/03/17 05:54:35;;;;;;;13.63;10.50;;;;;;;;;;4964539;28;25072;-76
2024/03/17 05:57:04;;;;;;;13.68;11.05;;;;;;;;;;4975682;28;25067;-73
2024/03/17 05:59:31;;;;;;;15.27;11.32;;;;;;;;;;4961636;28;25110;-76
2024/03/17 06:01:57;;;;;;;14.50;10.15;;;;;;;;;;4974407;28;25065;-76
2024/03/17 06:04:24;;;;;;;17.70;11.00;;;;;;;;;;4964397;28;25056;-75
2024/03/17 06:06:50;;;;;;;16.73;10.40;;;;;;;;;;4969307;28;25083;-75
2024/03/17 06:09:19;;;;;;;14.13;9.77;;;;;;;;;;4965175;28;25066;-75
2024/03/17 06:11:46;;;;;;;13.32;10.77;;;;;;;;;;4984410;28;25059;-74
2024/03/17 06:14:13;;;;;;;16.08;11.05;;;;;;;;;;4973867;28;25073;-75
2024/03/17 06:16:39;;;;;;;12.75;10.50;;;;;;;;;;4979163;28;25088;-76
2024/03/17 06:19:05;;;;;;;16.65;11.13;;;;;;;;;;4981388;28;25055;-73
2024/03/17 06:21:31;;;;;;;19.10;10.50;;;;;;;;;;4973543;28;25098;-76
2024/03/17 06:23:57;;;;;;;15.18;10.88;;;;;;;;;;4974543;28;25090;-79
2024/03/17 06:26:23;;;;;;;18.70;11.23;;;;;;;;;;4974000;28;25086;-76
2024/03/17 06:28:49;;;;;;;18.95;11.35;;;;;;;;;;4963915;28;25138;-75
2024/03/17 06:31:15;;;;;;;14.15;10.45;;;;;;;;;;4964066;28;25092;-75
2024/03/17 06:33:41;;;;;;;13.60;10.18;;;;;;;;;;4969643;28;25101;-75
2024/03/17 06:36:08;;;;;;;17.13;11.35;;;;;;;;;;4965373;28;25066;-74
2024/03/17 06:38:34;;;;;;;12.05;9.73;;;;;;;;;;4970376;28;25060;-74
2024/03/17 06:41:00;;;;;;;14.15;9.90;;;;;;;;;;4971178;28;25073;-77
2024/03/17 06:43:26;;;;;;;18.70;9.55;;;;;;;;;;4966838;28;25067;-76
2024/03/17 06:45:59;;;;;;;13.52;9.85;;;;;;;;;;4961446;28;25059;-75
2024/03/17 06:48:25;;;;;;;;;;;;;;;;;;4962434;28;25064;-75
2024/03/17 06:50:57;;;;;;;12.18;9.45;;;;;;;;;;4965093;28;24165;-76
2024/03/17 06:53:23;;;;;;;;;;;;;;;;;;4954983;28;25124;-78
2024/03/17 06:55:56;;;;;;;12.07;9.57;;;;;;;;;;4972496;28;25073;-75
2024/03/17 06:58:22;;;;;;;15.85;9.55;;;;;;;;;;4962813;28;25071;-76
2024/03/17 07:01:01;;;;;;;13.10;9.68;;;;;;;;;;4959859;28;25068;-74
2024/03/17 07:03:28;;;;;;;13.73;9.68;;;;;;;;;;4963862;28;25095;-76
2024/03/17 07:05:54;;;;;;;12.70;9.68;;;;;;;;;;4965408;28;25063;-76
2024/03/17 07:08:20;;;;;;;14.20;10.27;;;;;;;;;;4965257;28;25061;-75
2024/03/17 07:11:17;;;;;;;14.10;9.35;;;;;;;;;;4975702;28;25074;-75
2024/03/17 07:13:43;;;;;;;15.85;9.95;;;;;;;;;;4964454;28;25120;-75
2024/03/17 07:16:09;;;;;;;15.63;10.05;;;;;;;;;;4971304;28;25102;-77
2024/03/17 07:18:36;;;;;;;16.25;11.07;;;;;;;;;;4967640;28;25062;-77
2024/03/17 07:21:07;;;;;;;12.52;9.00;;;;;;;;;;4970019;28;25070;-76
2024/03/17 07:23:33;;;;;;;14.55;10.15;;;;;;;;;;4965651;28;25133;-75
2024/03/17 07:25:59;;;;;;;12.70;9.63;;;;;;;;;;4967799;28;25043;-75
2024/03/17 07:28:26;;;;;;;14.52;8.68;;;;;;;;;;4971277;28;25203;-76
2024/03/17 07:30:59;;;;;;;13.23;10.02;;;;;;;;;;4973218;28;25072;-74
2024/03/17 07:33:26;;;;;;;12.25;9.38;;;;;;;;;;4967849;28;25073;-76
2024/03/17 07:36:00;;;;;;;15.48;9.98;;;;;;;;;;4966427;28;25106;-74
2024/03/17 07:38:27;;;;;;;16.15;9.38;;;;;;;;;;4947182;28;25059;-79
2024/03/17 07:41:00;;;;;;;15.13;9.88;;;;;;;;;;4973360;28;25124;-75
2024/03/17 07:43:27;;;;;;;13.63;8.93;;;;;;;;;;4966593;28;25073;-76
2024/03/17 07:46:00;;;;;;;12.55;8.90;;;;;;;;;;4964740;28;25061;-74
2024/03/17 07:48:26;;;;;;;13.52;9.30;;;;;;;;;;4959693;28;25126;-75
2024/03/17 07:50:58;;;;;;;15.15;10.00;;;;;;;;;;4964651;28;25089;-75
2024/03/17 07:53:24;;;;;;;;;;;;;;;;;;4967234;28;25129;-78
2024/03/17 07:56:06;;;;;;;16.17;9.65;;;;;;;;;;4963157;28;25154;-74
2024/03/17 07:58:37;;;;;;;13.25;9.38;;;;;;;;;;4954526;28;25074;-74
2024/03/17 08:01:04;;;;;;;13.98;10.05;;;;;;;;;;4960887;28;25070;-75
2024/03/17 08:03:31;;;;;;;16.88;9.23;;;;;;;;;;4959294;28;25058;-75
2024/03/17 08:05:57;;;;;;;13.85;9.73;;;;;;;;;;4965969;28;25075;-74
2024/03/17 08:08:23;;;;;;;14.55;9.32;;;;;;;;;;4961127;28;25073;-76
2024/03/17 08:10:50;;;;;;;14.88;8.90;;;;;;;;;;4965380;28;25073;-75
2024/03/17 08:13:17;;;;;;;15.82;10.05;;;;;;;;;;4966539;28;25117;-74
2024/03/17 08:15:43;;;;;;;13.45;9.15;;;;;;;;;;4967233;28;25065;-76
2024/03/17 08:18:10;;;;;;;20.05;10.50;;;;;;;;;;4970350;28;25078;-73
2024/03/17 08:20:46;;;;;;;13.98;9.32;;;;;;;;;;4966544;28;25084;-76
2024/03/17 08:23:12;;;;;;;13.75;9.32;;;;;;;;;;4964190;28;25049;-77
2024/03/17 08:25:39;;;;;;;14.27;10.40;;;;;;;;;;4974634;28;25071;-74
2024/03/17 08:28:05;;;;;;;16.02;10.30;;;;;;;;;;4966571;28;25002;-75
2024/03/17 08:30:31;;;;;;;16.65;9.35;;;;;;;;;;4970939;28;25145;-72
2024/03/17 08:32:57;;;;;;;16.85;10.13;;;;;;;;;;4962662;28;25077;-75
2024/03/17 08:35:23;;;;;;;13.32;9.15;;;;;;;;;;4970482;28;25099;-75
2024/03/17 08:37:51;;;;;;;13.27;9.25;;;;;;;;;;4960387;28;25146;-77
2024/03/17 08:40:17;;;;;;;13.60;9.23;;;;;;;;;;4965918;28;25076;-75
2024/03/17 08:42:43;;;;;;;13.40;8.88;;;;;;;;;;4960389;28;25091;-75
2024/03/17 08:45:12;;;;;;;12.90;9.25;;;;;;;;;;4963048;28;25092;-74
2024/03/17 08:47:38;;;;;;;12.82;9.18;;;;;;;;;;4961222;28;25132;-74
2024/03/17 08:50:04;;;;;;;13.63;9.55;;;;;;;;;;4967256;28;25083;-75
2024/03/17 08:52:34;;;;;;;10.18;8.77;;;;;;;;;;4962345;28;25069;-74
2024/03/17 08:55:02;;;;;;;12.70;9.52;;;;;;;;;;4964351;28;25165;-74
2024/03/17 08:57:28;;;;;;;13.45;9.73;;;;;;;;;;4961263;28;25080;-76
2024/03/17 08:59:54;;;;;;;13.93;9.63;;;;;;;;;;4962101;28;25065;-75
2024/03/17 09:02:21;;;;;;;12.55;9.23;;;;;;;;;;4959126;28;25144;-76
2024/03/17 09:04:47;;;;;;;12.18;9.60;;;;;;;;;;4962406;28;25051;-74
2024/03/17 09:07:15;;;;;;;16.45;9.63;;;;;;;;;;4964210;28;25141;-74
2024/03/17 09:09:41;;;;;;;17.00;9.02;;;;;;;;;;4959250;28;25057;-74
2024/03/17 09:12:08;;;;;;;12.30;9.05;;;;;;;;;;4960186;28;25101;-74
2024/03/17 09:14:34;;;;;;;12.45;9.50;;;;;;;;;;4970000;28;25118;-74
2024/03/17 09:17:00;;;;;;;15.20;8.90;;;;;;;;;;4956567;28;25055;-74
2024/03/17 09:19:26;;;;;;;13.60;9.40;;;;;;;;;;4955165;28;25135;-73
2024/03/17 09:21:52;;;;;;;12.70;8.65;;;;;;;;;;4957339;28;25058;-75
2024/03/17 09:24:18;;;;;;;14.05;9.23;;;;;;;;;;4964098;28;25078;-73
2024/03/17 09:26:44;;;;;;;13.43;9.18;;;;;;;;;;4964935;28;25065;-75
2024/03/17 09:29:10;;;;;;;10.90;8.70;;;;;;;;;;4966633;28;25053;-74
2024/03/17 09:31:36;;;;;;;11.98;8.65;;;;;;;;;;4963955;28;25162;-74
2024/03/17 09:34:02;;;;;;;15.45;9.15;;;;;;;;;;4967343;28;25505;-74
2024/03/17 09:36:28;;;;;;;11.70;8.85;;;;;;;;;;4967762;28;25154;-73
2024/03/17 09:38:54;;;;;;;13.95;8.75;;;;;;;;;;4973084;28;25086;-73
2024/03/17 09:41:21;;;;;;;11.55;9.18;;;;;;;;;;4974035;28;25074;-74
2024/03/17 09:43:48;;;;;;;11.85;8.63;;;;;;;;;;4967318;28;25080;-75
2024/03/17 09:46:16;;;;;;;12.18;8.60;;;;;;;;;;4983022;28;25055;-75
2024/03/17 09:48:43;;;;;;;11.38;9.00;;;;;;;;;;4973436;28;25133;-75
2024/03/17 09:51:13;;;;;;;13.73;8.10;;;;;;;;;;4975753;28;25048;-77
2024/03/17 09:53:38;;;;;;;12.05;8.25;;;;;;;;;;4982773;28;25075;-74
2024/03/17 09:56:12;;;;;;;10.73;8.30;;;;;;;;;;4981378;28;25099;-74
2024/03/17 09:58:38;;;;;;;14.40;8.82;;;;;;;;;;4971565;28;25062;-73
2024/03/17 10:01:05;;;;;;;15.82;9.05;;;;;;;;;;4972557;28;25070;-74
2024/03/17 10:03:45;;;;;;;12.93;9.15;;;;;;;;;;4966108;28;25051;-73
2024/03/17 10:06:11;;;;;;;11.05;8.13;;;;;;;;;;4969844;28;25059;-75
2024/03/17 10:08:47;;;;;;;14.23;9.07;;;;;;;;;;4963342;28;25072;-74
2024/03/17 10:11:15;;;;;;;12.30;8.75;;;;;;;;;;4965197;28;25065;-76
2024/03/17 10:13:41;;;;;;;15.23;8.20;;;;;;;;;;4966466;28;25063;-74
2024/03/17 10:16:16;;;;;;;13.73;8.40;;;;;;;;;;4957237;28;25162;-73
2024/03/17 10:18:42;;;;;;;10.82;8.25;;;;;;;;;;4961621;28;25097;-76
2024/03/17 10:21:24;;;;;;;13.60;9.00;;;;;;;;;;4973751;28;25127;-76
2024/03/17 10:24:05;;;;;;;12.10;7.25;;;;;;;;;;4962997;28;25053;-77
2024/03/17 10:26:31;;;;;;;13.57;8.32;;;;;;;;;;4961528;28;25072;-75
2024/03/17 10:28:57;;;;;;;11.90;8.07;;;;;;;;;;4963004;28;25058;-74
2024/03/17 10:31:23;;;;;;;11.45;7.55;;;;;;;;;;4971462;28;25052;-73
2024/03/17 10:34:01;;;;;;;9.43;7.53;;;;;;;;;;4969090;28;25058;-75
2024/03/17 10:36:27;;;;;;;12.32;7.65;;;;;;;;;;4960350;28;25101;-74
2024/03/17 10:38:54;;;;;;;12.68;8.00;;;;;;;;;;4964579;28;25089;-74
2024/03/17 10:41:22;;;;;;;9.85;7.57;;;;;;;;;;4967790;28;25057;-75
2024/03/17 10:43:48;;;;;;;13.25;7.82;;;;;;;;;;4964207;28;25065;-76
2024/03/17 10:46:15;;;;;;;12.98;8.27;;;;;;;;;;4963146;28;25052;-76
2024/03/17 10:48:42;;;;;;;13.02;7.75;;;;;;;;;;4960754;28;25061;-75
2024/03/17 10:51:15;;;;;;;10.95;7.38;;;;;;;;;;4953617;28;25089;-76
2024/03/17 10:53:42;;;;;;;15.88;7.97;;;;;;;;;;4965407;28;25065;-75
2024/03/17 10:56:08;;;;;;;13.82;8.68;;;;;;;;;;4964690;28;25070;-75
2024/03/17 10:58:36;;;;;;;12.13;7.50;;;;;;;;;;4963586;28;25097;-75
2024/03/17 11:01:07;;;;;;;15.32;8.02;;;;;;;;;;4967378;28;25078;-75
2024/03/17 11:03:33;;;;;;;11.88;7.32;;;;;;;;;;4958517;28;25072;-76
2024/03/17 11:06:00;;;;;;;16.95;7.90;;;;;;;;;;4962845;28;25070;-76
2024/03/17 11:08:26;;;;;;;16.17;7.38;;;;;;;;;;4965714;28;25101;-76
2024/03/17 11:10:54;;;;;;;8.48;6.20;;;;;;;;;;4965126;28;25074;-74
2024/03/17 11:13:25;;;;;;;13.50;7.53;;;;;;;;;;4960992;28;25074;-75
2024/03/17 11:15:53;;;;;;;11.65;7.10;;;;;;;;;;4964582;28;25062;-77
2024/03/17 11:18:22;;;;;;;17.25;7.32;;;;;;;;;;4963770;28;25092;-75
2024/03/17 11:20:58;;;;;;;12.45;7.20;;;;;;;;;;4962137;28;25066;-78
2024/03/17 11:23:28;;;;;;;10.70;6.22;;;;;;;;;;4961081;28;25144;-76
2024/03/17 11:25:54;;;;;;;12.13;6.35;;;;;;;;;;4955704;28;25072;-74
2024/03/17 11:28:39;;;;;;;10.23;6.50;;;;;;;;;;4961971;28;25064;-75
2024/03/17 11:31:08;;;;;;;13.90;7.13;;;;;;;;;;4964041;28;25133;-75
2024/03/17 11:33:37;;;;;;;15.27;8.07;;;;;;;;;;4962733;28;25116;-76
2024/03/17 11:36:24;;;;;;;11.07;6.97;;;;;;;;;;4961269;28;25105;-76
2024/03/17 11:38:57;;;;;;;11.00;6.95;;;;;;;;;;4961837;28;25054;-74
2024/03/17 11:41:31;;;;;;;12.43;6.57;;;;;;;;;;4963177;28;25103;-75
2024/03/17 11:44:18;;;;;;;11.50;6.53;;;;;;;;;;4960145;28;25122;-74
2024/03/17 11:46:44;;;;;;;14.73;6.63;;;;;;;;;;4965158;28;25161;-75
2024/03/17 11:49:30;;;;;;;10.70;7.03;;;;;;;;;;4963748;28;25078;-74
2024/03/17 11:51:57;;;;;;;10.75;6.43;;;;;;;;;;4956384;28;25104;-74
2024/03/17 11:54:27;;;;;;;10.23;6.57;;;;;;;;;;4962164;28;25050;-76
2024/03/17 11:56:53;;;;;;;10.02;6.28;;;;;;;;;;4966431;28;25058;-73
2024/03/17 11:59:19;;;;;;;11.10;6.22;;;;;;;;;;4960954;28;25069;-75
2024/03/17 12:01:51;;;;;;;10.65;6.15;;;;;;;;;;4967701;28;25431;-76
2024/03/17 12:04:18;;;;;;;;;;;;;;;;;;4964605;28;25074;-74
2024/03/17 12:06:47;;;;;;;11.93;6.80;;;;;;;;;;4961932;28;25065;-75
2024/03/17 12:09:20;;;;;;;11.75;5.88;;;;;;;;;;4958048;28;25077;-76
2024/03/17 12:12:00;;;;;;;11.80;5.40;;;;;;;;;;4964664;28;25070;-74
2024/03/17 12:14:26;;;;;;;11.60;5.38;;;;;;;;;;4960788;28;25168;-75
2024/03/17 12:16:56;;;;;;;9.30;5.32;;;;;;;;;;4960233;28;25051;-77
2024/03/17 12:19:22;;;;;;;11.05;4.90;;;;;;;;;;4963284;28;25073;-76
2024/03/17 12:21:49;;;;;;;11.07;5.63;;;;;;;;;;4960790;28;25139;-75
2024/03/17 12:24:22;;;;;;;19.08;6.40;;;;;;;;;;4958481;28;25052;-74
2024/03/17 12:26:55;;;;;;;11.63;5.97;;;;;;;;;;4969811;28;25062;-76
2024/03/17 12:29:27;;;;;;;10.07;5.40;;;;;;;;;;4960564;28;25160;-75
2024/03/17 12:31:53;;;;;;;11.60;5.65;;;;;;;;;;4966725;28;25147;-75
2024/03/17 12:34:20;;;;;;;8.85;5.55;;;;;;;;;;4964777;28;25101;-76
2024/03/17 12:36:46;;;;;;;11.18;5.90;;;;;;;;;;4965738;28;25081;-75
2024/03/17 12:39:22;;;;;;;13.20;5.30;;;;;;;;;;4961162;28;25090;-75
2024/03/17 12:42:03;;;;;;;11.07;5.13;;;;;;;;;;4960125;28;25068;-79
2024/03/17 12:44:30;;;;;;;10.07;5.57;;;;;;;;;;4963154;28;25060;-76
2024/03/17 12:46:57;;;;;;;11.27;5.85;;;;;;;;;;4966542;28;25062;-75
2024/03/17 12:49:26;;;;;;;13.10;4.88;;;;;;;;;;4969994;28;25147;-75
2024/03/17 12:51:52;;;;;;;13.13;4.75;;;;;;;;;;4962958;28;25068;-76
2024/03/17 12:54:20;;;;;;;12.52;5.25;;;;;;;;;;4954418;28;25167;-76
2024/03/17 13:02:23;;;;;;;13.43;4.07;;;;;;;;;;4973460;28;25136;-76
2024/03/17 13:05:05;;;;;;;12.15;5.00;;;;;;;;;;4965755;28;25124;-77
2024/03/17 13:07:31;;;;;;;11.68;5.25;;;;;;;;;;4966648;28;25074;-76
2024/03/17 13:09:57;;;;;;;10.10;4.70;;;;;;;;;;4970797;28;25091;-76
2024/03/17 13:12:23;;;;;;;8.75;4.30;;;;;;;;;;4962061;28;25077;-76
2024/03/17 13:14:49;;;;;;;11.20;4.40;;;;;;;;;;4966488;28;25062;-74
2024/03/17 13:17:17;;;;;;;11.35;5.00;;;;;;;;;;4969126;28;25190;-74
2024/03/17 13:19:46;;;;;;;11.45;4.32;;;;;;;;;;4960728;28;25092;-75
2024/03/17 13:22:13;;;;;;;9.32;4.20;;;;;;;;;;4965506;28;25056;-76
2024/03/17 13:24:39;;;;;;;7.47;4.53;;;;;;;;;;4967357;28;25050;-74
2024/03/17 13:27:06;;;;;;;10.35;4.78;;;;;;;;;;4963043;28;25112;-77
2024/03/17 13:29:38;;;;;;;9.70;4.55;;;;;;;;;;4967928;28;25056;-75
2024/03/17 13:32:04;;;;;;;;;;;;;;;;;;4965204;28;25093;-74
2024/03/17 13:34:30;;;;;;;12.23;4.60;;;;;;;;;;4958016;28;25080;-75
2024/03/17 13:36:56;;;;;;;9.30;5.13;;;;;;;;;;4966316;28;25189;-75
2024/03/17 13:39:24;;;;;;;13.27;5.25;;;;;;;;;;4967309;28;25055;-75
2024/03/17 13:41:52;;;;;;;9.45;5.60;;;;;;;;;;4963767;28;25111;-76
2024/03/17 13:44:19;;;;;;;12.32;5.70;;;;;;;;;;4968787;28;25105;-75
2024/03/17 13:46:45;;;;;;;10.93;5.35;;;;;;;;;;4961957;28;25130;-75
2024/03/17 13:49:11;;;;;;;9.10;5.25;;;;;;;;;;4978774;28;25081;-77
2024/03/17 13:51:37;;;;;;;7.75;5.95;;;;;;;;;;4998124;28;25104;-77
2024/03/17 13:54:03;;;;;;;9.02;5.85;;;;;;;;;;4976405;28;25061;-75
2024/03/17 13:56:29;;;;;;;11.60;5.53;;;;;;;;;;4986424;28;25084;-76
2024/03/17 13:58:55;;;;;;;9.77;5.35;;;;;;;;;;4967698;28;25064;-76
2024/03/17 14:01:21;;;;;;;11.13;4.85;;;;;;;;;;4972093;28;25072;-77
2024/03/17 14:03:50;;;;;;;12.05;4.95;;;;;;;;;;4975989;28;25142;-76
2024/03/17 14:06:16;;;;;;;9.60;4.90;;;;;;;;;;4962815;28;25080;-74
2024/03/17 14:08:42;;;;;;;7.80;3.92;;;;;;;;;;4982456;28;25045;-75
2024/03/17 14:11:08;;;;;;;10.43;4.30;;;;;;;;;;4971269;28;25079;-75
2024/03/17 14:13:34;;;;;;;8.32;4.00;;;;;;;;;;4980640;28;25080;-75
2024/03/17 14:16:00;;;;;;;10.18;4.00;;;;;;;;;;4966606;28;25090;-75
2024/03/17 14:18:26;;;;;;;6.93;3.88;;;;;;;;;;4964148;28;25132;-75
2024/03/17 14:20:52;;;;;;;10.80;4.35;;;;;;;;;;4982864;28;25151;-75
2024/03/17 14:23:18;;;;;;;6.00;3.63;;;;;;;;;;4971706;28;25081;-76
2024/03/17 14:25:44;;;;;;;14.63;4.38;;;;;;;;;;4966499;28;25087;-78
2024/03/17 14:28:10;;;;;;;6.30;3.90;;;;;;;;;;4964398;28;25106;-76
2024/03/17 14:30:36;;;;;;;8.30;3.65;;;;;;;;;;4970990;28;25071;-75
2024/03/17 14:33:04;;;;;;;9.25;4.10;;;;;;;;;;4966033;28;25135;-76
2024/03/17 14:35:30;;;;;;;9.93;3.63;;;;;;;;;;4963369;28;25144;-75
2024/03/17 14:37:58;;;;;;;8.95;3.70;;;;;;;;;;4961379;28;25090;-78
2024/03/17 14:40:24;;;;;;;5.63;3.55;;;;;;;;;;4966919;28;25140;-76